sensor_id;sensor_type;location;lat;lon;timestamp;P1;durP1;ratioP1;P2;durP2;ratioP2
10827;SDS011;5467;59.334;13.512;2022-10-31T00:02:07;0.60;;;0.60;;
10827;SDS011;5467;59.334;13.512;2022-10-31T00:04:34;0.67;;;0.67;;
10827;SDS011;5467;59.334;13.512;2022-10-31T00:07:01;0.70;;;0.70;;
10827;SDS011;5467;59.334;13.512;2022-10-31T00:09:28;0.60;;;0.60;;
10827;SDS011;5467;59.334;13.512;2022-10-31T00:11:55;0.60;;;0.60;;
10827;SDS011;5467;59.334;13.512;2022-10-31T00:14:22;0.60;;;0.60;;
10827;SDS011;5467;59.334;13.512;2022-10-31T00:16:51;0.70;;;0.70;;
10827;SDS011;5467;59.334;13.512;2022-10-31T00:19:17;0.80;;;0.80;;
10827;SDS011;5467;59.334;13.512;2022-10-31T00:21:44;0.90;;;0.90;;
10827;SDS011;5467;59.334;13.512;2022-10-31T00:24:11;0.80;;;0.80;;
10827;SDS011;5467;59.334;13.512;2022-10-31T00:26:38;0.80;;;0.80;;
10827;SDS011;5467;59.334;13.512;2022-10-31T00:29:05;0.70;;;0.70;;
10827;SDS011;5467;59.334;13.512;2022-10-31T00:31:32;0.80;;;0.80;;
10827;SDS011;5467;59.334;13.512;2022-10-31T00:34:01;0.70;;;0.70;;
10827;SDS011;5467;59.334;13.512;2022-10-31T00:36:28;0.70;;;0.70;;
10827;SDS011;5467;59.334;13.512;2022-10-31T00:38:57;0.80;;;0.80;;
10827;SDS011;5467;59.334;13.512;2022-10-31T00:41:24;0.70;;;0.70;;
10827;SDS011;5467;59.334;13.512;2022-10-31T00:43:51;1.17;;;1.10;;
10827;SDS011;5467;59.334;13.512;2022-10-31T00:46:18;0.90;;;0.90;;
10827;SDS011;5467;59.334;13.512;2022-10-31T00:48:45;0.90;;;0.90;;
10827;SDS011;5467;59.334;13.512;2022-10-31T00:51:13;0.70;;;0.70;;
10827;SDS011;5467;59.334;13.512;2022-10-31T00:53:40;0.90;;;0.90;;
10827;SDS011;5467;59.334;13.512;2022-10-31T00:56:07;0.80;;;0.80;;
10827;SDS011;5467;59.334;13.512;2022-10-31T00:58:34;0.70;;;0.70;;
10827;SDS011;5467;59.334;13.512;2022-10-31T01:01:01;0.77;;;0.77;;
10827;SDS011;5467;59.334;13.512;2022-10-31T01:03:29;1.00;;;1.00;;
10827;SDS011;5467;59.334;13.512;2022-10-31T01:05:58;0.70;;;0.70;;
10827;SDS011;5467;59.334;13.512;2022-10-31T01:08:27;0.77;;;0.77;;
10827;SDS011;5467;59.334;13.512;2022-10-31T01:11:02;0.80;;;0.80;;
10827;SDS011;5467;59.334;13.512;2022-10-31T01:13:31;0.90;;;0.90;;
10827;SDS011;5467;59.334;13.512;2022-10-31T01:15:59;0.70;;;0.70;;
10827;SDS011;5467;59.334;13.512;2022-10-31T01:18:27;0.73;;;0.73;;
10827;SDS011;5467;59.334;13.512;2022-10-31T01:20:58;1.60;;;1.00;;
10827;SDS011;5467;59.334;13.512;2022-10-31T01:23:28;0.80;;;0.80;;
10827;SDS011;5467;59.334;13.512;2022-10-31T01:25:58;1.00;;;1.00;;
10827;SDS011;5467;59.334;13.512;2022-10-31T01:28:30;0.80;;;0.80;;
10827;SDS011;5467;59.334;13.512;2022-10-31T01:30:59;0.77;;;0.77;;
10827;SDS011;5467;59.334;13.512;2022-10-31T01:33:27;0.70;;;0.70;;
10827;SDS011;5467;59.334;13.512;2022-10-31T01:35:54;0.83;;;0.83;;
10827;SDS011;5467;59.334;13.512;2022-10-31T01:38:21;0.70;;;0.70;;
10827;SDS011;5467;59.334;13.512;2022-10-31T01:40:50;1.20;;;1.10;;
10827;SDS011;5467;59.334;13.512;2022-10-31T01:43:18;1.00;;;1.00;;
10827;SDS011;5467;59.334;13.512;2022-10-31T01:45:46;1.10;;;1.10;;
10827;SDS011;5467;59.334;13.512;2022-10-31T01:48:18;1.00;;;1.00;;
10827;SDS011;5467;59.334;13.512;2022-10-31T01:50:47;1.30;;;1.20;;
10827;SDS011;5467;59.334;13.512;2022-10-31T01:53:18;1.00;;;1.00;;
10827;SDS011;5467;59.334;13.512;2022-10-31T01:55:45;1.10;;;1.10;;
10827;SDS011;5467;59.334;13.512;2022-10-31T01:58:15;1.10;;;1.10;;
10827;SDS011;5467;59.334;13.512;2022-10-31T02:00:48;1.10;;;1.10;;
10827;SDS011;5467;59.334;13.512;2022-10-31T02:03:17;1.40;;;1.30;;
10827;SDS011;5467;59.334;13.512;2022-10-31T02:05:46;1.10;;;1.10;;
10827;SDS011;5467;59.334;13.512;2022-10-31T02:08:16;1.23;;;1.17;;
10827;SDS011;5467;59.334;13.512;2022-10-31T02:10:47;1.57;;;1.47;;
10827;SDS011;5467;59.334;13.512;2022-10-31T02:13:15;1.83;;;1.73;;
10827;SDS011;5467;59.334;13.512;2022-10-31T02:15:43;1.50;;;1.40;;
10827;SDS011;5467;59.334;13.512;2022-10-31T02:18:13;1.20;;;1.20;;
10827;SDS011;5467;59.334;13.512;2022-10-31T02:20:42;1.00;;;1.00;;
10827;SDS011;5467;59.334;13.512;2022-10-31T02:32:43;1.00;;;1.00;;
10827;SDS011;5467;59.334;13.512;2022-10-31T02:35:22;1.00;;;1.00;;
10827;SDS011;5467;59.334;13.512;2022-10-31T02:38:00;0.80;;;0.80;;
10827;SDS011;5467;59.334;13.512;2022-10-31T02:40:39;1.20;;;1.10;;
10827;SDS011;5467;59.334;13.512;2022-10-31T02:43:16;1.10;;;1.10;;
10827;SDS011;5467;59.334;13.512;2022-10-31T02:45:48;1.00;;;1.00;;
10827;SDS011;5467;59.334;13.512;2022-10-31T02:48:23;1.00;;;1.00;;
10827;SDS011;5467;59.334;13.512;2022-10-31T02:50:55;1.20;;;1.13;;
10827;SDS011;5467;59.334;13.512;2022-10-31T02:53:24;0.83;;;0.83;;
10827;SDS011;5467;59.334;13.512;2022-10-31T02:55:55;1.00;;;1.00;;
10827;SDS011;5467;59.334;13.512;2022-10-31T02:58:26;1.07;;;1.00;;
10827;SDS011;5467;59.334;13.512;2022-10-31T03:01:04;0.80;;;0.80;;
10827;SDS011;5467;59.334;13.512;2022-10-31T03:03:49;0.90;;;0.90;;
10827;SDS011;5467;59.334;13.512;2022-10-31T03:06:24;1.27;;;1.00;;
10827;SDS011;5467;59.334;13.512;2022-10-31T03:08:59;0.80;;;0.80;;
10827;SDS011;5467;59.334;13.512;2022-10-31T03:11:31;0.70;;;0.70;;
10827;SDS011;5467;59.334;13.512;2022-10-31T03:14:08;0.80;;;0.80;;
10827;SDS011;5467;59.334;13.512;2022-10-31T03:16:41;0.70;;;0.70;;
10827;SDS011;5467;59.334;13.512;2022-10-31T03:19:14;0.93;;;0.93;;
10827;SDS011;5467;59.334;13.512;2022-10-31T03:21:44;0.90;;;0.90;;
10827;SDS011;5467;59.334;13.512;2022-10-31T03:24:13;1.07;;;1.00;;
10827;SDS011;5467;59.334;13.512;2022-10-31T03:26:42;1.27;;;1.17;;
10827;SDS011;5467;59.334;13.512;2022-10-31T03:29:14;0.90;;;0.90;;
10827;SDS011;5467;59.334;13.512;2022-10-31T03:31:44;1.90;;;1.30;;
10827;SDS011;5467;59.334;13.512;2022-10-31T03:34:15;1.23;;;1.20;;
10827;SDS011;5467;59.334;13.512;2022-10-31T03:36:46;1.30;;;1.20;;
10827;SDS011;5467;59.334;13.512;2022-10-31T03:39:17;1.67;;;1.30;;
10827;SDS011;5467;59.334;13.512;2022-10-31T03:41:47;1.20;;;1.10;;
10827;SDS011;5467;59.334;13.512;2022-10-31T03:44:19;1.93;;;1.50;;
10827;SDS011;5467;59.334;13.512;2022-10-31T03:46:48;2.13;;;1.80;;
10827;SDS011;5467;59.334;13.512;2022-10-31T03:49:17;1.87;;;1.47;;
10827;SDS011;5467;59.334;13.512;2022-10-31T03:51:45;2.13;;;1.90;;
10827;SDS011;5467;59.334;13.512;2022-10-31T03:54:19;3.13;;;1.90;;
10827;SDS011;5467;59.334;13.512;2022-10-31T03:56:52;1.50;;;1.40;;
10827;SDS011;5467;59.334;13.512;2022-10-31T03:59:23;1.20;;;1.20;;
10827;SDS011;5467;59.334;13.512;2022-10-31T04:01:56;1.80;;;1.50;;
10827;SDS011;5467;59.334;13.512;2022-10-31T04:04:29;0.90;;;0.90;;
10827;SDS011;5467;59.334;13.512;2022-10-31T04:06:57;1.50;;;1.40;;
10827;SDS011;5467;59.334;13.512;2022-10-31T04:09:26;1.60;;;1.50;;
10827;SDS011;5467;59.334;13.512;2022-10-31T04:11:56;1.13;;;1.13;;
10827;SDS011;5467;59.334;13.512;2022-10-31T04:14:26;1.17;;;1.10;;
10827;SDS011;5467;59.334;13.512;2022-10-31T04:16:55;1.13;;;1.13;;
10827;SDS011;5467;59.334;13.512;2022-10-31T04:19:23;1.00;;;1.00;;
10827;SDS011;5467;59.334;13.512;2022-10-31T04:21:51;1.03;;;1.03;;
10827;SDS011;5467;59.334;13.512;2022-10-31T04:24:18;1.03;;;1.03;;
10827;SDS011;5467;59.334;13.512;2022-10-31T04:26:45;0.90;;;0.90;;
10827;SDS011;5467;59.334;13.512;2022-10-31T04:29:12;1.00;;;1.00;;
10827;SDS011;5467;59.334;13.512;2022-10-31T04:31:39;1.10;;;1.10;;
10827;SDS011;5467;59.334;13.512;2022-10-31T04:34:06;0.90;;;0.90;;
10827;SDS011;5467;59.334;13.512;2022-10-31T04:36:33;0.90;;;0.90;;
10827;SDS011;5467;59.334;13.512;2022-10-31T04:39:01;0.93;;;0.93;;
10827;SDS011;5467;59.334;13.512;2022-10-31T04:41:28;0.90;;;0.90;;
10827;SDS011;5467;59.334;13.512;2022-10-31T04:43:55;0.80;;;0.80;;
10827;SDS011;5467;59.334;13.512;2022-10-31T04:46:22;0.70;;;0.70;;
10827;SDS011;5467;59.334;13.512;2022-10-31T04:48:49;0.80;;;0.80;;
10827;SDS011;5467;59.334;13.512;2022-10-31T04:51:16;1.20;;;1.20;;
10827;SDS011;5467;59.334;13.512;2022-10-31T04:53:43;0.90;;;0.90;;
10827;SDS011;5467;59.334;13.512;2022-10-31T04:56:11;0.80;;;0.80;;
10827;SDS011;5467;59.334;13.512;2022-10-31T04:58:38;0.90;;;0.90;;
10827;SDS011;5467;59.334;13.512;2022-10-31T05:01:05;0.90;;;0.90;;
10827;SDS011;5467;59.334;13.512;2022-10-31T05:03:32;0.90;;;0.90;;
10827;SDS011;5467;59.334;13.512;2022-10-31T05:05:59;0.90;;;0.90;;
10827;SDS011;5467;59.334;13.512;2022-10-31T05:08:26;0.87;;;0.87;;
10827;SDS011;5467;59.334;13.512;2022-10-31T05:10:53;0.90;;;0.90;;
10827;SDS011;5467;59.334;13.512;2022-10-31T05:13:21;0.80;;;0.80;;
10827;SDS011;5467;59.334;13.512;2022-10-31T05:15:49;0.50;;;0.50;;
10827;SDS011;5467;59.334;13.512;2022-10-31T05:18:16;0.90;;;0.90;;
10827;SDS011;5467;59.334;13.512;2022-10-31T05:20:43;0.60;;;0.60;;
10827;SDS011;5467;59.334;13.512;2022-10-31T05:23:09;0.80;;;0.80;;
10827;SDS011;5467;59.334;13.512;2022-10-31T05:25:36;0.70;;;0.70;;
10827;SDS011;5467;59.334;13.512;2022-10-31T05:28:03;0.80;;;0.80;;
10827;SDS011;5467;59.334;13.512;2022-10-31T05:30:32;0.70;;;0.70;;
10827;SDS011;5467;59.334;13.512;2022-10-31T05:33:00;0.70;;;0.70;;
10827;SDS011;5467;59.334;13.512;2022-10-31T05:35:28;0.43;;;0.43;;
10827;SDS011;5467;59.334;13.512;2022-10-31T05:37:56;0.50;;;0.50;;
10827;SDS011;5467;59.334;13.512;2022-10-31T05:40:24;0.97;;;0.97;;
10827;SDS011;5467;59.334;13.512;2022-10-31T05:42:53;0.50;;;0.50;;
10827;SDS011;5467;59.334;13.512;2022-10-31T05:45:21;0.50;;;0.50;;
10827;SDS011;5467;59.334;13.512;2022-10-31T05:47:53;0.60;;;0.60;;
10827;SDS011;5467;59.334;13.512;2022-10-31T05:50:22;0.60;;;0.60;;
10827;SDS011;5467;59.334;13.512;2022-10-31T05:52:53;0.70;;;0.70;;
10827;SDS011;5467;59.334;13.512;2022-10-31T05:55:22;0.50;;;0.50;;
10827;SDS011;5467;59.334;13.512;2022-10-31T05:57:50;0.60;;;0.60;;
10827;SDS011;5467;59.334;13.512;2022-10-31T06:00:17;0.50;;;0.50;;
10827;SDS011;5467;59.334;13.512;2022-10-31T06:02:45;0.60;;;0.60;;
10827;SDS011;5467;59.334;13.512;2022-10-31T06:05:13;0.80;;;0.80;;
10827;SDS011;5467;59.334;13.512;2022-10-31T06:07:41;0.60;;;0.60;;
10827;SDS011;5467;59.334;13.512;2022-10-31T06:10:08;0.70;;;0.70;;
10827;SDS011;5467;59.334;13.512;2022-10-31T06:12:36;0.80;;;0.80;;
10827;SDS011;5467;59.334;13.512;2022-10-31T06:15:03;0.60;;;0.60;;
10827;SDS011;5467;59.334;13.512;2022-10-31T06:17:31;0.50;;;0.50;;
10827;SDS011;5467;59.334;13.512;2022-10-31T06:19:58;0.57;;;0.57;;
10827;SDS011;5467;59.334;13.512;2022-10-31T06:22:27;0.67;;;0.67;;
10827;SDS011;5467;59.334;13.512;2022-10-31T06:24:54;0.67;;;0.67;;
10827;SDS011;5467;59.334;13.512;2022-10-31T06:27:21;0.70;;;0.70;;
10827;SDS011;5467;59.334;13.512;2022-10-31T06:29:48;0.70;;;0.70;;
10827;SDS011;5467;59.334;13.512;2022-10-31T06:32:15;0.80;;;0.80;;
10827;SDS011;5467;59.334;13.512;2022-10-31T06:34:42;0.60;;;0.60;;
10827;SDS011;5467;59.334;13.512;2022-10-31T06:37:13;0.70;;;0.70;;
10827;SDS011;5467;59.334;13.512;2022-10-31T06:39:42;0.60;;;0.60;;
10827;SDS011;5467;59.334;13.512;2022-10-31T06:42:09;0.90;;;0.90;;
10827;SDS011;5467;59.334;13.512;2022-10-31T06:44:36;0.80;;;0.80;;
10827;SDS011;5467;59.334;13.512;2022-10-31T06:47:03;0.60;;;0.60;;
10827;SDS011;5467;59.334;13.512;2022-10-31T06:49:31;0.60;;;0.60;;
10827;SDS011;5467;59.334;13.512;2022-10-31T06:51:58;0.63;;;0.63;;
10827;SDS011;5467;59.334;13.512;2022-10-31T06:54:25;0.70;;;0.70;;
10827;SDS011;5467;59.334;13.512;2022-10-31T06:56:53;0.60;;;0.60;;
10827;SDS011;5467;59.334;13.512;2022-10-31T06:59:20;0.60;;;0.60;;
10827;SDS011;5467;59.334;13.512;2022-10-31T07:01:49;0.60;;;0.60;;
10827;SDS011;5467;59.334;13.512;2022-10-31T07:04:16;0.80;;;0.80;;
10827;SDS011;5467;59.334;13.512;2022-10-31T07:06:43;0.60;;;0.60;;
10827;SDS011;5467;59.334;13.512;2022-10-31T07:09:10;0.70;;;0.70;;
10827;SDS011;5467;59.334;13.512;2022-10-31T07:11:37;0.80;;;0.80;;
10827;SDS011;5467;59.334;13.512;2022-10-31T07:14:06;0.70;;;0.70;;
10827;SDS011;5467;59.334;13.512;2022-10-31T07:16:33;0.80;;;0.80;;
10827;SDS011;5467;59.334;13.512;2022-10-31T07:19:00;0.60;;;0.60;;
10827;SDS011;5467;59.334;13.512;2022-10-31T07:21:26;0.80;;;0.80;;
10827;SDS011;5467;59.334;13.512;2022-10-31T07:23:53;0.70;;;0.70;;
10827;SDS011;5467;59.334;13.512;2022-10-31T07:26:21;0.70;;;0.70;;
10827;SDS011;5467;59.334;13.512;2022-10-31T07:28:48;0.70;;;0.70;;
10827;SDS011;5467;59.334;13.512;2022-10-31T07:31:16;0.83;;;0.83;;
10827;SDS011;5467;59.334;13.512;2022-10-31T07:33:43;0.87;;;0.87;;
10827;SDS011;5467;59.334;13.512;2022-10-31T07:36:10;1.00;;;1.00;;
10827;SDS011;5467;59.334;13.512;2022-10-31T07:38:37;0.83;;;0.83;;
10827;SDS011;5467;59.334;13.512;2022-10-31T07:41:04;0.80;;;0.80;;
10827;SDS011;5467;59.334;13.512;2022-10-31T07:43:31;0.70;;;0.70;;
10827;SDS011;5467;59.334;13.512;2022-10-31T07:45:58;0.90;;;0.90;;
10827;SDS011;5467;59.334;13.512;2022-10-31T07:48:26;0.70;;;0.70;;
10827;SDS011;5467;59.334;13.512;2022-10-31T07:50:54;0.80;;;0.80;;
10827;SDS011;5467;59.334;13.512;2022-10-31T07:53:21;0.77;;;0.77;;
10827;SDS011;5467;59.334;13.512;2022-10-31T07:55:48;1.00;;;1.00;;
10827;SDS011;5467;59.334;13.512;2022-10-31T07:58:15;0.70;;;0.70;;
10827;SDS011;5467;59.334;13.512;2022-10-31T08:00:44;0.93;;;0.93;;
10827;SDS011;5467;59.334;13.512;2022-10-31T08:03:12;0.90;;;0.90;;
10827;SDS011;5467;59.334;13.512;2022-10-31T08:05:41;0.93;;;0.93;;
10827;SDS011;5467;59.334;13.512;2022-10-31T08:08:11;1.00;;;1.00;;
10827;SDS011;5467;59.334;13.512;2022-10-31T08:10:39;0.90;;;0.90;;
10827;SDS011;5467;59.334;13.512;2022-10-31T08:13:07;0.90;;;0.90;;
10827;SDS011;5467;59.334;13.512;2022-10-31T08:15:35;0.90;;;0.90;;
10827;SDS011;5467;59.334;13.512;2022-10-31T08:18:04;0.90;;;0.90;;
10827;SDS011;5467;59.334;13.512;2022-10-31T08:20:32;0.97;;;0.97;;
10827;SDS011;5467;59.334;13.512;2022-10-31T08:23:01;0.80;;;0.80;;
10827;SDS011;5467;59.334;13.512;2022-10-31T08:25:29;0.80;;;0.80;;
10827;SDS011;5467;59.334;13.512;2022-10-31T08:27:58;0.80;;;0.80;;
10827;SDS011;5467;59.334;13.512;2022-10-31T08:30:26;0.90;;;0.90;;
10827;SDS011;5467;59.334;13.512;2022-10-31T08:32:58;0.90;;;0.90;;
10827;SDS011;5467;59.334;13.512;2022-10-31T08:35:29;0.90;;;0.90;;
10827;SDS011;5467;59.334;13.512;2022-10-31T08:37:56;1.10;;;1.10;;
10827;SDS011;5467;59.334;13.512;2022-10-31T08:40:25;0.97;;;0.97;;
10827;SDS011;5467;59.334;13.512;2022-10-31T08:42:57;0.87;;;0.87;;
10827;SDS011;5467;59.334;13.512;2022-10-31T08:45:25;0.80;;;0.80;;
10827;SDS011;5467;59.334;13.512;2022-10-31T08:47:56;0.70;;;0.70;;
10827;SDS011;5467;59.334;13.512;2022-10-31T08:50:23;1.00;;;1.00;;
10827;SDS011;5467;59.334;13.512;2022-10-31T08:52:50;0.70;;;0.70;;
10827;SDS011;5467;59.334;13.512;2022-10-31T08:55:17;0.80;;;0.80;;
10827;SDS011;5467;59.334;13.512;2022-10-31T08:57:46;0.87;;;0.87;;
10827;SDS011;5467;59.334;13.512;2022-10-31T09:00:13;0.83;;;0.83;;
10827;SDS011;5467;59.334;13.512;2022-10-31T09:02:40;0.70;;;0.70;;
10827;SDS011;5467;59.334;13.512;2022-10-31T09:05:07;0.70;;;0.70;;
10827;SDS011;5467;59.334;13.512;2022-10-31T09:07:35;0.70;;;0.70;;
10827;SDS011;5467;59.334;13.512;2022-10-31T09:10:02;0.70;;;0.70;;
10827;SDS011;5467;59.334;13.512;2022-10-31T09:12:29;0.80;;;0.80;;
10827;SDS011;5467;59.334;13.512;2022-10-31T09:14:57;0.70;;;0.70;;
10827;SDS011;5467;59.334;13.512;2022-10-31T09:17:26;0.70;;;0.70;;
10827;SDS011;5467;59.334;13.512;2022-10-31T09:19:54;0.70;;;0.70;;
10827;SDS011;5467;59.334;13.512;2022-10-31T09:22:21;0.80;;;0.80;;
10827;SDS011;5467;59.334;13.512;2022-10-31T09:24:48;0.80;;;0.80;;
10827;SDS011;5467;59.334;13.512;2022-10-31T09:27:15;0.70;;;0.70;;
10827;SDS011;5467;59.334;13.512;2022-10-31T09:29:42;0.60;;;0.60;;
10827;SDS011;5467;59.334;13.512;2022-10-31T09:32:11;0.73;;;0.73;;
10827;SDS011;5467;59.334;13.512;2022-10-31T09:34:38;0.50;;;0.50;;
10827;SDS011;5467;59.334;13.512;2022-10-31T09:37:04;0.90;;;0.90;;
10827;SDS011;5467;59.334;13.512;2022-10-31T09:39:31;0.70;;;0.70;;
10827;SDS011;5467;59.334;13.512;2022-10-31T09:42:04;0.80;;;0.80;;
10827;SDS011;5467;59.334;13.512;2022-10-31T09:44:43;0.70;;;0.70;;
10827;SDS011;5467;59.334;13.512;2022-10-31T09:47:20;0.70;;;0.70;;
10827;SDS011;5467;59.334;13.512;2022-10-31T09:50:00;0.70;;;0.70;;
10827;SDS011;5467;59.334;13.512;2022-10-31T09:52:38;0.80;;;0.80;;
10827;SDS011;5467;59.334;13.512;2022-10-31T09:55:12;0.70;;;0.70;;
10827;SDS011;5467;59.334;13.512;2022-10-31T09:57:42;0.70;;;0.70;;
10827;SDS011;5467;59.334;13.512;2022-10-31T10:00:14;0.80;;;0.80;;
10827;SDS011;5467;59.334;13.512;2022-10-31T10:02:45;0.80;;;0.80;;
10827;SDS011;5467;59.334;13.512;2022-10-31T10:05:16;0.70;;;0.70;;
10827;SDS011;5467;59.334;13.512;2022-10-31T10:07:49;0.70;;;0.70;;
10827;SDS011;5467;59.334;13.512;2022-10-31T10:10:27;0.90;;;0.90;;
10827;SDS011;5467;59.334;13.512;2022-10-31T10:13:08;0.70;;;0.70;;
10827;SDS011;5467;59.334;13.512;2022-10-31T10:15:56;0.60;;;0.60;;
10827;SDS011;5467;59.334;13.512;2022-10-31T10:18:36;0.80;;;0.80;;
10827;SDS011;5467;59.334;13.512;2022-10-31T10:21:15;0.70;;;0.70;;
10827;SDS011;5467;59.334;13.512;2022-10-31T10:23:58;0.70;;;0.70;;
10827;SDS011;5467;59.334;13.512;2022-10-31T10:26:34;0.60;;;0.60;;
10827;SDS011;5467;59.334;13.512;2022-10-31T10:31:51;0.87;;;0.87;;
10827;SDS011;5467;59.334;13.512;2022-10-31T10:34:22;0.77;;;0.77;;
10827;SDS011;5467;59.334;13.512;2022-10-31T10:36:56;0.70;;;0.70;;
10827;SDS011;5467;59.334;13.512;2022-10-31T10:39:27;0.60;;;0.60;;
10827;SDS011;5467;59.334;13.512;2022-10-31T10:41:59;0.60;;;0.60;;
10827;SDS011;5467;59.334;13.512;2022-10-31T10:44:55;0.80;;;0.80;;
10827;SDS011;5467;59.334;13.512;2022-10-31T10:47:41;0.60;;;0.60;;
10827;SDS011;5467;59.334;13.512;2022-10-31T10:50:13;0.70;;;0.70;;
10827;SDS011;5467;59.334;13.512;2022-10-31T10:52:46;0.80;;;0.80;;
10827;SDS011;5467;59.334;13.512;2022-10-31T10:55:22;0.70;;;0.70;;
10827;SDS011;5467;59.334;13.512;2022-10-31T10:57:56;0.70;;;0.70;;
10827;SDS011;5467;59.334;13.512;2022-10-31T11:00:25;0.60;;;0.60;;
10827;SDS011;5467;59.334;13.512;2022-10-31T11:02:53;0.60;;;0.60;;
10827;SDS011;5467;59.334;13.512;2022-10-31T11:05:28;0.80;;;0.80;;
10827;SDS011;5467;59.334;13.512;2022-10-31T11:08:00;0.73;;;0.73;;
10827;SDS011;5467;59.334;13.512;2022-10-31T11:10:27;0.60;;;0.60;;
10827;SDS011;5467;59.334;13.512;2022-10-31T11:12:59;0.60;;;0.60;;
10827;SDS011;5467;59.334;13.512;2022-10-31T11:15:31;0.70;;;0.70;;
10827;SDS011;5467;59.334;13.512;2022-10-31T11:18:01;0.60;;;0.60;;
10827;SDS011;5467;59.334;13.512;2022-10-31T11:20:31;0.70;;;0.70;;
10827;SDS011;5467;59.334;13.512;2022-10-31T11:23:15;0.70;;;0.70;;
10827;SDS011;5467;59.334;13.512;2022-10-31T11:25:54;0.80;;;0.80;;
10827;SDS011;5467;59.334;13.512;2022-10-31T11:28:23;0.80;;;0.80;;
10827;SDS011;5467;59.334;13.512;2022-10-31T11:30:52;0.70;;;0.70;;
10827;SDS011;5467;59.334;13.512;2022-10-31T11:33:22;0.70;;;0.70;;
10827;SDS011;5467;59.334;13.512;2022-10-31T11:35:53;0.60;;;0.60;;
10827;SDS011;5467;59.334;13.512;2022-10-31T11:38:21;0.67;;;0.67;;
10827;SDS011;5467;59.334;13.512;2022-10-31T11:40:51;0.70;;;0.70;;
10827;SDS011;5467;59.334;13.512;2022-10-31T11:43:20;0.70;;;0.70;;
10827;SDS011;5467;59.334;13.512;2022-10-31T11:45:48;0.63;;;0.63;;
10827;SDS011;5467;59.334;13.512;2022-10-31T11:48:16;0.60;;;0.60;;
10827;SDS011;5467;59.334;13.512;2022-10-31T11:50:47;0.73;;;0.73;;
10827;SDS011;5467;59.334;13.512;2022-10-31T11:53:17;0.60;;;0.60;;
10827;SDS011;5467;59.334;13.512;2022-10-31T11:55:48;0.60;;;0.60;;
10827;SDS011;5467;59.334;13.512;2022-10-31T11:58:31;0.70;;;0.70;;
10827;SDS011;5467;59.334;13.512;2022-10-31T12:00:58;0.70;;;0.70;;
10827;SDS011;5467;59.334;13.512;2022-10-31T12:03:48;0.70;;;0.70;;
10827;SDS011;5467;59.334;13.512;2022-10-31T12:06:20;0.70;;;0.70;;
10827;SDS011;5467;59.334;13.512;2022-10-31T12:08:51;0.60;;;0.60;;
10827;SDS011;5467;59.334;13.512;2022-10-31T12:11:32;0.70;;;0.70;;
10827;SDS011;5467;59.334;13.512;2022-10-31T12:14:13;0.70;;;0.70;;
10827;SDS011;5467;59.334;13.512;2022-10-31T12:16:53;0.70;;;0.70;;
10827;SDS011;5467;59.334;13.512;2022-10-31T12:19:26;0.70;;;0.70;;
10827;SDS011;5467;59.334;13.512;2022-10-31T12:22:05;0.60;;;0.60;;
10827;SDS011;5467;59.334;13.512;2022-10-31T12:24:50;0.73;;;0.73;;
10827;SDS011;5467;59.334;13.512;2022-10-31T12:27:30;0.60;;;0.60;;
10827;SDS011;5467;59.334;13.512;2022-10-31T12:30:11;0.70;;;0.70;;
10827;SDS011;5467;59.334;13.512;2022-10-31T12:32:49;0.60;;;0.60;;
10827;SDS011;5467;59.334;13.512;2022-10-31T12:35:44;0.70;;;0.70;;
10827;SDS011;5467;59.334;13.512;2022-10-31T12:38:24;0.60;;;0.60;;
10827;SDS011;5467;59.334;13.512;2022-10-31T12:41:23;0.70;;;0.70;;
10827;SDS011;5467;59.334;13.512;2022-10-31T12:44:04;0.80;;;0.80;;
10827;SDS011;5467;59.334;13.512;2022-10-31T12:46:42;0.70;;;0.70;;
10827;SDS011;5467;59.334;13.512;2022-10-31T12:49:25;0.60;;;0.60;;
10827;SDS011;5467;59.334;13.512;2022-10-31T12:52:06;0.80;;;0.80;;
10827;SDS011;5467;59.334;13.512;2022-10-31T12:54:47;0.70;;;0.70;;
10827;SDS011;5467;59.334;13.512;2022-10-31T12:57:30;0.70;;;0.70;;
10827;SDS011;5467;59.334;13.512;2022-10-31T13:00:00;0.63;;;0.63;;
10827;SDS011;5467;59.334;13.512;2022-10-31T13:02:31;0.77;;;0.77;;
10827;SDS011;5467;59.334;13.512;2022-10-31T13:05:03;0.70;;;0.70;;
10827;SDS011;5467;59.334;13.512;2022-10-31T13:07:39;0.60;;;0.60;;
10827;SDS011;5467;59.334;13.512;2022-10-31T13:10:14;0.70;;;0.70;;
10827;SDS011;5467;59.334;13.512;2022-10-31T13:12:46;0.70;;;0.70;;
10827;SDS011;5467;59.334;13.512;2022-10-31T13:15:18;0.63;;;0.63;;
10827;SDS011;5467;59.334;13.512;2022-10-31T13:17:47;0.90;;;0.90;;
10827;SDS011;5467;59.334;13.512;2022-10-31T13:20:20;0.70;;;0.70;;
10827;SDS011;5467;59.334;13.512;2022-10-31T13:22:52;0.63;;;0.63;;
10827;SDS011;5467;59.334;13.512;2022-10-31T13:25:23;0.70;;;0.70;;
10827;SDS011;5467;59.334;13.512;2022-10-31T13:27:56;0.70;;;0.70;;
10827;SDS011;5467;59.334;13.512;2022-10-31T13:30:25;0.70;;;0.70;;
10827;SDS011;5467;59.334;13.512;2022-10-31T13:32:57;0.60;;;0.60;;
10827;SDS011;5467;59.334;13.512;2022-10-31T13:35:29;0.70;;;0.70;;
10827;SDS011;5467;59.334;13.512;2022-10-31T13:38:08;0.80;;;0.80;;
10827;SDS011;5467;59.334;13.512;2022-10-31T13:40:43;0.70;;;0.70;;
10827;SDS011;5467;59.334;13.512;2022-10-31T13:43:21;0.70;;;0.70;;
10827;SDS011;5467;59.334;13.512;2022-10-31T13:45:54;0.70;;;0.70;;
10827;SDS011;5467;59.334;13.512;2022-10-31T13:48:38;0.70;;;0.70;;
10827;SDS011;5467;59.334;13.512;2022-10-31T13:51:08;0.70;;;0.70;;
10827;SDS011;5467;59.334;13.512;2022-10-31T13:53:38;0.80;;;0.80;;
10827;SDS011;5467;59.334;13.512;2022-10-31T13:56:19;0.70;;;0.70;;
10827;SDS011;5467;59.334;13.512;2022-10-31T13:58:59;0.70;;;0.70;;
10827;SDS011;5467;59.334;13.512;2022-10-31T14:01:30;0.70;;;0.70;;
10827;SDS011;5467;59.334;13.512;2022-10-31T14:03:59;0.80;;;0.80;;
10827;SDS011;5467;59.334;13.512;2022-10-31T14:06:36;0.70;;;0.70;;
10827;SDS011;5467;59.334;13.512;2022-10-31T14:09:14;0.70;;;0.70;;
10827;SDS011;5467;59.334;13.512;2022-10-31T14:11:49;0.77;;;0.77;;
10827;SDS011;5467;59.334;13.512;2022-10-31T14:14:18;0.80;;;0.80;;
10827;SDS011;5467;59.334;13.512;2022-10-31T14:16:52;0.73;;;0.73;;
10827;SDS011;5467;59.334;13.512;2022-10-31T14:19:22;0.80;;;0.80;;
10827;SDS011;5467;59.334;13.512;2022-10-31T14:21:49;0.70;;;0.70;;
10827;SDS011;5467;59.334;13.512;2022-10-31T14:24:30;1.00;;;1.00;;
10827;SDS011;5467;59.334;13.512;2022-10-31T14:27:00;0.80;;;0.80;;
10827;SDS011;5467;59.334;13.512;2022-10-31T14:29:30;0.80;;;0.80;;
10827;SDS011;5467;59.334;13.512;2022-10-31T14:32:05;0.70;;;0.70;;
10827;SDS011;5467;59.334;13.512;2022-10-31T14:34:51;0.80;;;0.80;;
10827;SDS011;5467;59.334;13.512;2022-10-31T14:37:32;0.70;;;0.70;;
10827;SDS011;5467;59.334;13.512;2022-10-31T14:40:26;0.80;;;0.80;;
10827;SDS011;5467;59.334;13.512;2022-10-31T14:43:06;0.90;;;0.90;;
10827;SDS011;5467;59.334;13.512;2022-10-31T14:45:47;0.80;;;0.80;;
10827;SDS011;5467;59.334;13.512;2022-10-31T14:48:26;0.80;;;0.80;;
10827;SDS011;5467;59.334;13.512;2022-10-31T14:51:14;0.77;;;0.77;;
10827;SDS011;5467;59.334;13.512;2022-10-31T14:53:45;0.80;;;0.80;;
10827;SDS011;5467;59.334;13.512;2022-10-31T14:56:17;0.70;;;0.70;;
10827;SDS011;5467;59.334;13.512;2022-10-31T14:58:49;0.70;;;0.70;;
10827;SDS011;5467;59.334;13.512;2022-10-31T15:01:21;0.70;;;0.70;;
10827;SDS011;5467;59.334;13.512;2022-10-31T15:03:50;0.80;;;0.80;;
10827;SDS011;5467;59.334;13.512;2022-10-31T15:06:18;0.70;;;0.70;;
10827;SDS011;5467;59.334;13.512;2022-10-31T15:08:48;0.80;;;0.80;;
10827;SDS011;5467;59.334;13.512;2022-10-31T15:11:16;0.80;;;0.80;;
10827;SDS011;5467;59.334;13.512;2022-10-31T15:13:45;0.70;;;0.70;;
10827;SDS011;5467;59.334;13.512;2022-10-31T15:16:14;0.80;;;0.80;;
10827;SDS011;5467;59.334;13.512;2022-10-31T15:18:47;0.80;;;0.80;;
10827;SDS011;5467;59.334;13.512;2022-10-31T15:21:17;0.70;;;0.70;;
10827;SDS011;5467;59.334;13.512;2022-10-31T15:23:47;0.80;;;0.80;;